createdAt,value
2023-02-22T00:02:10.731Z,101531.97
2023-02-22T00:07:12.422Z,101516.69
2023-02-22T00:12:14.191Z,101523.38
2023-02-22T00:17:16.202Z,101529.28
2023-02-22T00:22:19.535Z,101515.59
2023-02-22T00:27:21.131Z,101523.59
2023-02-22T00:32:23.402Z,101523.75
2023-02-22T00:37:24.884Z,101522.91
2023-02-22T00:42:26.381Z,101508.72
2023-02-22T00:47:28.329Z,101502.28
2023-02-22T00:52:29.906Z,101505.25
2023-02-22T00:57:31.721Z,101503.03
2023-02-22T01:02:33.203Z,101500.34
2023-02-22T01:07:35.165Z,101495.06
2023-02-22T01:12:37.037Z,101487.78
2023-02-22T01:17:40.121Z,101505.78
2023-02-22T01:22:44.404Z,101495.06
2023-02-22T01:27:46.248Z,101485.19
2023-02-22T01:32:47.922Z,101475.97
2023-02-22T01:37:49.590Z,101463.66
2023-02-22T01:42:53.500Z,101453.78
2023-02-22T01:48:11.096Z,101454.19
2023-02-22T01:53:18.044Z,101449.75
2023-02-22T01:58:21.820Z,101447.91
2023-02-22T02:03:29.313Z,101444.09
2023-02-22T02:08:49.605Z,101440.00
2023-02-22T02:13:56.898Z,101440.75
2023-02-22T02:18:58.379Z,101437.28
2023-02-22T02:24:39.618Z,101434.25
2023-02-22T02:29:46.696Z,101431.53
2023-02-22T02:35:00.260Z,101436.59
2023-02-22T02:40:29.364Z,101434.28
2023-02-22T02:45:39.247Z,101423.72
2023-02-22T02:50:46.836Z,101412.16
2023-02-22T02:55:48.491Z,101405.88
2023-02-22T03:00:55.532Z,101396.13
2023-02-22T03:06:34.560Z,101391.47
2023-02-22T03:12:02.152Z,101384.56
2023-02-22T03:17:26.363Z,101393.56
2023-02-22T03:22:36.154Z,101393.19
2023-02-22T03:27:43.597Z,101383.38
2023-02-22T03:32:51.485Z,101382.63
2023-02-22T03:37:58.280Z,101376.59
2023-02-22T03:43:09.137Z,101372.41
2023-02-22T03:48:23.751Z,101368.84
2023-02-22T03:53:25.514Z,101362.94
2023-02-22T03:58:31.581Z,101359.84
2023-02-22T04:03:33.063Z,101354.19
2023-02-22T04:08:35.137Z,101357.13
2023-02-22T04:13:36.654Z,101343.75
2023-02-22T04:18:38.167Z,101343.16
2023-02-22T04:23:39.695Z,101341.03
2023-02-22T04:28:41.230Z,101344.00
2023-02-22T04:33:42.799Z,101347.34
2023-02-22T04:38:44.457Z,101335.03
2023-02-22T04:43:46.261Z,101336.78
2023-02-22T04:48:47.757Z,101324.59
2023-02-22T04:53:49.387Z,101310.34
2023-02-22T04:58:50.865Z,101308.47
2023-02-22T05:03:52.389Z,101294.84
2023-02-22T05:08:53.980Z,101294.72
2023-02-22T05:13:55.521Z,101290.53
2023-02-22T05:18:57.050Z,101279.69
2023-02-22T05:23:58.592Z,101278.72
2023-02-22T05:29:00.097Z,101271.13
2023-02-22T05:34:01.643Z,101267.06
2023-02-22T05:39:03.224Z,101264.59
2023-02-22T05:44:04.941Z,101261.41
2023-02-22T05:49:06.565Z,101250.69
2023-02-22T05:54:08.295Z,101249.84
2023-02-22T05:59:09.805Z,101241.63
2023-02-22T06:04:11.332Z,101250.22
2023-02-22T06:09:12.805Z,101240.50
2023-02-22T06:14:14.373Z,101234.00
2023-02-22T06:19:15.934Z,101234.22
2023-02-22T06:24:17.967Z,101230.66
2023-02-22T06:29:19.502Z,101231.41
2023-02-22T06:34:24.332Z,101231.25
2023-02-22T06:39:25.981Z,101232.63
2023-02-22T06:44:27.497Z,101232.16
2023-02-22T06:49:28.975Z,101231.03
2023-02-22T06:54:30.478Z,101231.88
2023-02-22T06:59:32.031Z,101232.28
2023-02-22T07:04:34.218Z,101233.84
2023-02-22T07:09:36.603Z,101234.84
2023-02-22T07:14:38.146Z,101231.88
2023-02-22T07:19:39.690Z,101247.88
2023-02-22T07:24:41.219Z,101239.88
2023-02-22T07:29:43.796Z,101229.41
2023-02-22T07:34:45.323Z,101237.16
2023-02-22T07:39:46.891Z,101246.13
2023-02-22T07:44:48.386Z,101248.59
2023-02-22T07:49:50.327Z,101237.56
2023-02-22T07:54:51.836Z,101231.00
2023-02-22T07:59:53.669Z,101227.97
2023-02-22T08:04:55.225Z,101218.72
2023-02-22T08:09:56.731Z,101210.13
2023-02-22T08:14:58.287Z,101207.06
2023-02-22T08:19:59.856Z,101208.03
2023-02-22T08:25:01.408Z,101218.97
2023-02-22T08:30:02.968Z,101221.69
2023-02-22T08:35:04.970Z,101231.75
2023-02-22T08:40:06.954Z,101240.34
2023-02-22T08:45:08.914Z,101234.09
2023-02-22T08:50:20.669Z,101225.94
2023-02-22T08:55:24.460Z,101223.97
2023-02-22T09:00:26.123Z,101223.34
2023-02-22T09:05:29.787Z,101219.28
2023-02-22T09:10:34.668Z,101212.28
2023-02-22T09:15:36.292Z,101215.22
2023-02-22T09:20:37.968Z,101215.19
2023-02-22T09:25:40.898Z,101207.34
2023-02-22T09:30:43.120Z,101192.84
2023-02-22T09:35:46.592Z,101183.41
2023-02-22T09:41:07.496Z,101182.75
2023-02-22T09:46:28.206Z,101167.53
2023-02-22T09:51:45.212Z,101181.78
2023-02-22T09:56:50.134Z,101172.94
2023-02-22T10:02:00.474Z,101158.78
2023-02-22T10:07:26.143Z,101175.13
2023-02-22T10:12:44.181Z,101157.84
2023-02-22T10:18:20.826Z,101158.16
2023-02-22T10:23:34.436Z,101154.41
2023-02-22T10:28:43.877Z,101153.28
2023-02-22T10:33:48.636Z,101150.38
2023-02-22T10:38:58.872Z,101146.09
2023-02-22T10:44:02.051Z,101137.03
2023-02-22T10:49:08.869Z,101117.00
2023-02-22T10:54:13.418Z,101119.25
2023-02-22T10:59:32.944Z,101153.59
2023-02-22T11:04:52.522Z,101163.47
2023-02-22T11:09:59.667Z,101154.50
2023-02-22T11:15:23.461Z,101140.63
2023-02-22T11:20:34.770Z,101141.75
2023-02-22T11:25:39.685Z,101131.97
2023-02-22T11:30:44.486Z,101126.63
2023-02-22T11:35:52.655Z,101131.16
2023-02-22T11:41:15.250Z,101115.66
2023-02-22T11:46:22.715Z,101110.94
2023-02-22T11:51:36.651Z,101119.53
2023-02-22T11:56:45.070Z,101144.69
2023-02-22T12:01:54.134Z,101134.84
2023-02-22T12:07:37.165Z,101137.56
2023-02-22T12:12:50.602Z,101121.28
2023-02-22T12:18:00.083Z,101114.44
2023-02-22T12:23:40.682Z,101111.16
2023-02-22T12:28:47.741Z,101103.28
2023-02-22T12:34:02.359Z,101086.13
2023-02-22T12:39:40.963Z,101093.16
2023-02-22T12:44:52.212Z,101080.28
2023-02-22T12:50:05.608Z,101079.41
2023-02-22T12:55:41.910Z,101076.84
2023-02-22T13:00:51.062Z,101076.13
2023-02-22T13:06:20.776Z,101071.28
2023-02-22T13:11:25.317Z,101077.28
2023-02-22T13:16:35.464Z,101059.56
2023-02-22T13:21:49.572Z,101067.97
2023-02-22T13:26:55.664Z,101078.41
2023-02-22T13:32:21.769Z,101079.25
2023-02-22T13:37:54.492Z,101077.97
2023-02-22T13:43:17.876Z,101078.56
2023-02-22T13:48:54.654Z,101062.66
2023-02-22T13:54:27.495Z,101055.09
2023-02-22T13:59:36.540Z,101061.69
2023-02-22T14:04:40.631Z,101056.53
2023-02-22T14:09:47.192Z,101055.56
2023-02-22T14:15:28.118Z,101058.94
2023-02-22T14:20:37.347Z,101054.91
2023-02-22T14:25:41.544Z,101048.03
2023-02-22T14:30:43.182Z,101049.13
2023-02-22T14:35:50.221Z,101047.84
2023-02-22T14:40:53.682Z,101044.91
2023-02-22T14:45:58.614Z,101059.06
2023-02-22T14:51:20.180Z,101059.19
2023-02-22T14:56:23.180Z,101048.72
2023-02-22T15:07:01.007Z,101061.53
2023-02-22T15:12:02.467Z,101074.56
2023-02-22T15:17:08.936Z,101077.28
2023-02-22T15:22:24.049Z,101081.75
2023-02-22T15:27:26.214Z,101065.41
2023-02-22T15:32:32.194Z,101064.97
2023-02-22T15:37:33.762Z,101064.97
2023-02-22T15:42:58.417Z,101074.56
2023-02-22T15:48:00.168Z,101070.88
2023-02-22T15:53:03.177Z,101076.31
2023-02-22T15:58:10.814Z,101068.59
2023-02-22T16:03:19.904Z,101087.06
2023-02-22T16:08:31.154Z,101085.47
2023-02-22T16:13:35.111Z,101097.78
2023-02-22T16:18:41.372Z,101110.28
2023-02-22T16:23:49.368Z,101107.13
2023-02-22T16:29:00.168Z,101106.69
2023-02-22T16:34:03.454Z,101117.09
2023-02-22T16:39:07.196Z,101107.25
2023-02-22T16:44:08.968Z,101107.41
2023-02-22T16:49:12.094Z,101123.44
2023-02-22T16:54:18.988Z,101120.97
2023-02-22T16:59:20.594Z,101117.56
2023-02-22T17:04:28.647Z,101115.28
2023-02-22T17:09:30.302Z,101132.03
2023-02-22T17:14:34.944Z,101140.19
2023-02-22T17:19:37.698Z,101134.59
2023-02-22T17:24:39.317Z,101133.88
2023-02-22T17:29:45.131Z,101134.88
2023-02-22T17:34:46.668Z,101144.28
2023-02-22T17:39:48.248Z,101149.47
2023-02-22T17:44:49.774Z,101140.31
2023-02-22T17:49:52.924Z,101162.63
2023-02-22T17:54:54.531Z,101155.91
2023-02-22T17:59:56.759Z,101166.19
2023-02-22T18:04:58.277Z,101168.34
2023-02-22T18:10:00.335Z,101176.63
2023-02-22T18:15:01.834Z,101183.78
2023-02-22T18:20:14.045Z,101172.91
2023-02-22T18:25:15.833Z,101180.09
2023-02-22T18:30:18.316Z,101179.50
2023-02-22T18:35:19.911Z,101171.34
2023-02-22T18:40:21.443Z,101181.63
2023-02-22T18:45:22.975Z,101177.22
2023-02-22T18:50:24.437Z,101176.03
2023-02-22T18:55:25.928Z,101175.06
2023-02-22T19:00:28.697Z,101184.22
2023-02-22T19:05:32.648Z,101181.22
2023-02-22T19:10:34.232Z,101183.34
2023-02-22T19:15:35.779Z,101181.81
2023-02-22T19:20:37.252Z,101179.78
2023-02-22T19:25:41.067Z,101170.78
2023-02-22T19:30:42.839Z,101176.47
2023-02-22T19:35:48.115Z,101189.06
2023-02-22T19:40:50.004Z,101180.19
2023-02-22T19:45:51.559Z,101181.63
2023-02-22T19:50:57.761Z,101185.50
2023-02-22T19:55:59.343Z,101190.34
2023-02-22T20:01:00.886Z,101188.31
2023-02-22T20:06:02.463Z,101188.75
2023-02-22T20:11:05.780Z,101199.94
2023-02-22T20:16:09.953Z,101196.34
2023-02-22T20:21:18.477Z,101192.19
2023-02-22T20:26:22.484Z,101202.75
2023-02-22T20:31:24.716Z,101213.91
2023-02-22T20:36:28.317Z,101218.16
2023-02-22T20:41:32.854Z,101213.31
2023-02-22T20:46:37.562Z,101209.59
2023-02-22T20:51:40.284Z,101210.16
2023-02-22T20:56:45.213Z,101216.19
2023-02-22T21:01:52.917Z,101221.47
2023-02-22T21:06:54.272Z,101225.63
2023-02-22T21:11:55.840Z,101233.03
2023-02-22T21:16:57.377Z,101230.91
2023-02-22T21:22:01.423Z,101235.91
2023-02-22T21:27:03.467Z,101245.91
2023-02-22T21:32:05.280Z,101239.44
2023-02-22T21:37:08.294Z,101248.03
2023-02-22T21:42:09.846Z,101249.63
2023-02-22T21:47:11.306Z,101256.50
2023-02-22T21:52:13.027Z,101253.66
2023-02-22T21:57:14.961Z,101245.25
2023-02-22T22:02:16.469Z,101235.78
2023-02-22T22:07:18.838Z,101240.94
2023-02-22T22:12:26.010Z,101234.41
2023-02-22T22:17:29.808Z,101238.09
2023-02-22T22:22:31.423Z,101234.81
2023-02-22T22:27:32.908Z,101227.94
2023-02-22T22:32:34.987Z,101227.94
2023-02-22T22:37:36.561Z,101221.66
2023-02-22T22:42:38.077Z,101214.03
2023-02-22T22:47:45.866Z,101218.75
2023-02-22T22:52:47.350Z,101223.91
2023-02-22T22:57:48.809Z,101221.00
2023-02-22T23:02:50.868Z,101215.84
2023-02-22T23:07:53.060Z,101221.28
2023-02-22T23:12:56.441Z,101215.13
2023-02-22T23:17:59.259Z,101228.00
2023-02-22T23:23:02.755Z,101226.16
2023-02-22T23:28:04.242Z,101239.00
2023-02-22T23:33:05.742Z,101253.31
2023-02-22T23:38:08.339Z,101256.91
2023-02-22T23:43:12.028Z,101247.16
2023-02-22T23:48:13.557Z,101241.88
2023-02-22T23:53:15.325Z,101241.56
2023-02-22T23:58:16.854Z,101247.41
